createdAt,value
2022-11-04T00:00:37.297Z,80.60
2022-11-04T00:03:08.127Z,75.63
2022-11-04T00:05:38.703Z,79.50
2022-11-04T00:08:27.122Z,74.93
2022-11-04T00:11:17.181Z,75.65
2022-11-04T00:13:48.448Z,75.65
2022-11-04T00:16:37.527Z,70.30
2022-11-04T00:19:07.905Z,74.82
2022-11-04T00:21:47.822Z,77.15
2022-11-04T00:24:28.191Z,75.88
2022-11-04T00:27:08.401Z,71.65
2022-11-04T00:29:38.966Z,75.53
2022-11-04T00:34:49.244Z,73.82
2022-11-04T00:39:49.557Z,71.60
2022-11-04T00:44:49.611Z,72.85
2022-11-04T00:47:26.901Z,78.40
2022-11-04T00:49:57.388Z,84.55
2022-11-04T00:52:27.955Z,86.80
2022-11-04T00:57:30.056Z,95.07
2022-11-04T01:00:00.261Z,83.63
2022-11-04T01:02:30.873Z,100.40
2022-11-04T01:05:01.582Z,102.60
2022-11-04T01:10:02.573Z,107.82
2022-11-04T01:12:33.118Z,115.32
2022-11-04T01:17:33.408Z,112.43
2022-11-04T01:20:03.841Z,102.78
2022-11-04T01:22:34.197Z,91.03
2022-11-04T01:25:04.495Z,102.20
2022-11-04T01:27:34.766Z,100.95
2022-11-04T01:30:05.287Z,103.43
2022-11-04T01:35:05.152Z,105.30
2022-11-04T01:37:35.556Z,106.70
2022-11-04T01:40:06.091Z,109.38
2022-11-04T01:45:06.281Z,113.83
2022-11-04T01:50:18.581Z,110.38
2022-11-04T01:52:57.144Z,106.82
2022-11-04T01:55:31.272Z,114.47
2022-11-04T01:58:05.471Z,111.97
2022-11-04T02:00:36.254Z,110.88
2022-11-04T02:03:11.838Z,99.78
2022-11-04T02:05:43.180Z,122.05
2022-11-04T02:08:15.568Z,117.70
2022-11-04T02:10:55.057Z,120.30
2022-11-04T02:13:25.559Z,108.63
2022-11-04T02:19:05.963Z,116.00
2022-11-04T02:22:04.841Z,128.35
2022-11-04T02:25:06.256Z,123.55
2022-11-04T02:28:15.432Z,109.65
2022-11-04T02:31:17.749Z,109.35
2022-11-04T02:34:26.961Z,116.90
2022-11-04T02:37:18.860Z,124.85
2022-11-04T02:40:20.685Z,133.50
2022-11-04T02:43:11.090Z,118.38
2022-11-04T02:45:47.345Z,118.13
2022-11-04T02:48:41.456Z,138.85
2022-11-04T02:51:22.531Z,112.32
2022-11-04T02:54:15.180Z,118.95
2022-11-04T02:56:52.032Z,115.35
2022-11-04T02:59:32.562Z,119.88
2022-11-04T03:02:06.545Z,120.60
2022-11-04T03:04:41.389Z,134.65
2022-11-04T03:07:14.977Z,120.80
2022-11-04T03:09:51.849Z,107.05
2022-11-04T03:12:29.291Z,120.82
2022-11-04T03:15:08.384Z,113.43
2022-11-04T03:18:00.398Z,103.53
2022-11-04T03:20:33.188Z,112.80
2022-11-04T03:23:03.305Z,114.53
2022-11-04T03:25:39.949Z,96.85
2022-11-04T03:28:39.961Z,92.68
2022-11-04T03:31:15.130Z,85.03
2022-11-04T03:33:51.080Z,112.13
2022-11-04T03:36:21.926Z,97.38
2022-11-04T03:38:53.948Z,106.57
2022-11-04T03:41:38.177Z,89.85
2022-11-04T03:44:08.262Z,91.85
2022-11-04T03:46:38.552Z,97.97
2022-11-04T03:51:38.587Z,101.88
2022-11-04T03:54:09.424Z,97.15
2022-11-04T03:57:09.459Z,110.90
2022-11-04T04:00:13.050Z,109.10
2022-11-04T04:02:55.266Z,96.43
2022-11-04T04:05:32.135Z,96.20
2022-11-04T04:08:35.940Z,102.53
2022-11-04T04:11:27.835Z,110.60
2022-11-04T04:14:09.137Z,113.50
2022-11-04T04:16:48.037Z,97.95
2022-11-04T04:19:23.018Z,103.15
2022-11-04T04:22:03.208Z,96.60
2022-11-04T04:27:39.466Z,112.78
2022-11-04T04:30:12.166Z,101.10
2022-11-04T04:32:50.081Z,102.10
2022-11-04T04:35:33.308Z,111.63
2022-11-04T04:38:23.583Z,101.20
2022-11-04T04:44:03.950Z,86.10
2022-11-04T04:49:11.833Z,76.35
2022-11-04T04:51:46.812Z,63.10
2022-11-04T04:54:17.587Z,64.53
2022-11-04T04:56:49.209Z,60.58
2022-11-04T04:59:19.686Z,70.60
2022-11-04T05:01:49.767Z,63.58
2022-11-04T05:06:49.355Z,62.28
2022-11-04T05:09:19.216Z,45.95
2022-11-04T05:11:49.195Z,39.85
2022-11-04T05:14:19.224Z,43.92
2022-11-04T05:16:49.089Z,42.63
2022-11-04T05:19:19.366Z,58.28
2022-11-04T05:21:49.408Z,50.60
2022-11-04T05:26:48.655Z,52.38
2022-11-04T05:31:47.953Z,45.03
2022-11-04T05:34:17.932Z,46.10
2022-11-04T05:36:47.879Z,50.67
2022-11-04T05:39:17.958Z,43.83
2022-11-04T05:44:17.771Z,46.00
2022-11-04T05:46:47.789Z,37.80
2022-11-04T05:49:18.680Z,43.13
2022-11-04T05:51:48.717Z,37.00
2022-11-04T05:56:48.508Z,39.33
2022-11-04T05:59:18.461Z,37.67
2022-11-04T06:01:48.913Z,30.52
2022-11-04T06:04:21.607Z,37.90
2022-11-04T06:06:51.629Z,29.77
2022-11-04T06:11:51.909Z,35.15
2022-11-04T06:14:21.804Z,41.72
2022-11-04T06:16:51.746Z,35.25
2022-11-04T06:19:21.815Z,39.97
2022-11-04T06:24:20.900Z,35.13
2022-11-04T06:29:20.539Z,29.67
2022-11-04T06:31:50.478Z,32.42
2022-11-04T06:34:20.679Z,36.13
2022-11-04T06:36:52.239Z,38.60
2022-11-04T06:39:24.130Z,43.58
2022-11-04T06:41:55.492Z,31.55
2022-11-04T06:44:27.989Z,31.95
2022-11-04T06:49:27.982Z,33.78
2022-11-04T06:51:58.080Z,36.33
2022-11-04T06:54:30.944Z,34.40
2022-11-04T06:57:01.153Z,31.08
2022-11-04T06:59:31.100Z,31.05
2022-11-04T07:04:30.676Z,35.80
2022-11-04T07:09:29.964Z,36.07
2022-11-04T07:14:29.657Z,32.05
2022-11-04T07:19:29.032Z,33.37
2022-11-04T07:21:59.581Z,34.80
2022-11-04T07:24:29.508Z,36.42
2022-11-04T07:29:30.474Z,32.40
2022-11-04T07:32:00.546Z,43.75
2022-11-04T07:37:00.534Z,35.22
2022-11-04T07:42:00.042Z,39.22
2022-11-04T07:47:00.326Z,29.42
2022-11-04T07:49:30.207Z,33.33
2022-11-04T07:52:00.284Z,34.20
2022-11-04T07:57:01.688Z,28.43
2022-11-04T07:59:32.020Z,33.55
2022-11-04T08:02:02.085Z,26.88
2022-11-04T08:04:32.221Z,29.80
2022-11-04T08:09:31.370Z,37.83
2022-11-04T08:12:01.955Z,39.38
2022-11-04T08:14:32.526Z,45.47
2022-11-04T08:17:02.436Z,38.40
2022-11-04T08:22:03.110Z,36.67
2022-11-04T08:27:02.521Z,40.03
2022-11-04T08:29:36.816Z,45.08
2022-11-04T08:32:06.894Z,41.47
2022-11-04T08:34:37.266Z,50.08
2022-11-04T08:37:07.196Z,54.97
2022-11-04T08:42:06.787Z,49.88
2022-11-04T08:44:36.938Z,51.95
2022-11-04T08:47:07.001Z,51.15
2022-11-04T08:49:43.376Z,56.05
2022-11-04T08:52:13.784Z,53.17
2022-11-04T08:54:44.440Z,46.42
2022-11-04T08:57:14.963Z,39.55
2022-11-04T08:59:45.482Z,55.80
2022-11-04T09:02:18.417Z,50.20
2022-11-04T09:04:48.832Z,55.92
2022-11-04T09:07:19.297Z,50.75
2022-11-04T09:09:53.591Z,52.92
2022-11-04T09:12:23.914Z,46.30
2022-11-04T09:14:55.548Z,42.55
2022-11-04T09:17:25.980Z,53.08
2022-11-04T09:19:56.430Z,41.08
2022-11-04T09:22:26.938Z,48.78
2022-11-04T09:24:57.612Z,43.25
2022-11-04T09:27:28.118Z,51.35
2022-11-04T09:29:58.645Z,43.05
2022-11-04T09:32:29.140Z,46.65
2022-11-04T09:34:59.732Z,53.60
2022-11-04T09:37:30.078Z,44.38
2022-11-04T09:40:00.603Z,42.22
2022-11-04T09:43:04.954Z,48.45
2022-11-04T09:45:36.414Z,47.85
2022-11-04T09:48:11.595Z,53.17
2022-11-04T09:51:00.091Z,49.75
2022-11-04T09:53:44.078Z,38.13
2022-11-04T09:56:23.993Z,43.63
2022-11-04T09:58:54.978Z,41.65
2022-11-04T10:01:55.719Z,49.40
2022-11-04T10:04:46.093Z,37.90
2022-11-04T10:07:44.504Z,43.40
2022-11-04T10:10:33.583Z,43.08
2022-11-04T10:13:26.306Z,50.00
2022-11-04T10:16:26.371Z,50.47
2022-11-04T10:22:07.215Z,55.25
2022-11-04T10:24:52.331Z,41.92
2022-11-04T10:27:29.308Z,54.15
2022-11-04T10:30:04.342Z,50.38
2022-11-04T10:32:56.004Z,54.25
2022-11-04T10:36:05.271Z,59.83
2022-11-04T10:38:52.327Z,41.13
2022-11-04T10:41:41.122Z,44.75
2022-11-04T10:44:22.973Z,49.58
2022-11-04T10:47:17.349Z,41.08
2022-11-04T10:50:33.600Z,51.72
2022-11-04T10:53:26.400Z,44.15
2022-11-04T10:56:20.439Z,45.75
2022-11-04T10:58:52.397Z,42.70
2022-11-04T11:01:38.757Z,46.30
2022-11-04T11:04:12.165Z,43.80
2022-11-04T11:06:42.655Z,37.05
2022-11-04T11:09:22.236Z,40.60
2022-11-04T11:11:55.372Z,42.33
2022-11-04T11:14:39.354Z,39.22
2022-11-04T11:17:22.908Z,49.42
2022-11-04T11:19:58.838Z,48.75
2022-11-04T11:22:40.415Z,44.38
2022-11-04T11:25:26.695Z,43.25
2022-11-04T11:28:03.341Z,49.33
2022-11-04T11:30:46.233Z,57.28
2022-11-04T11:33:40.879Z,48.33
2022-11-04T11:36:33.938Z,44.67
2022-11-04T11:39:22.047Z,46.85
2022-11-04T11:42:05.485Z,48.28
2022-11-04T11:44:46.156Z,51.95
2022-11-04T11:47:40.633Z,59.30
2022-11-04T11:50:21.482Z,53.75
2022-11-04T11:52:54.532Z,53.10
2022-11-04T11:55:38.479Z,73.20
2022-11-04T12:01:37.612Z,61.75
2022-11-04T12:10:52.578Z,88.20
2022-11-04T12:13:31.626Z,85.10
2022-11-04T12:16:23.983Z,75.28
2022-11-04T12:19:24.091Z,83.47
2022-11-04T12:22:20.395Z,84.03
2022-11-04T12:25:07.231Z,75.65
2022-11-04T12:27:55.792Z,70.68
2022-11-04T12:30:33.852Z,65.45
2022-11-04T12:33:28.604Z,72.82
2022-11-04T12:36:19.633Z,69.80
2022-11-04T12:39:06.734Z,75.95
2022-11-04T12:42:21.893Z,66.63
2022-11-04T12:45:32.466Z,81.43
2022-11-04T12:48:10.016Z,74.27
2022-11-04T12:50:57.173Z,85.72
2022-11-04T12:53:55.720Z,86.22
2022-11-04T12:56:40.863Z,102.00
2022-11-04T12:59:36.611Z,92.40
2022-11-04T13:02:31.443Z,95.45
2022-11-04T13:05:10.130Z,110.35
2022-11-04T13:08:08.692Z,110.90
2022-11-04T13:10:55.065Z,114.15
2022-11-04T13:13:37.929Z,154.77
2022-11-04T13:16:13.837Z,125.70
2022-11-04T13:18:47.819Z,114.95
2022-11-04T13:21:29.528Z,118.95
2022-11-04T13:24:24.912Z,129.00
2022-11-04T13:26:55.695Z,128.60
2022-11-04T13:29:28.283Z,118.78
2022-11-04T13:32:23.713Z,116.30
2022-11-04T13:35:19.882Z,137.18
2022-11-04T13:38:14.576Z,115.15
2022-11-04T13:41:20.201Z,108.10
2022-11-04T13:43:57.753Z,82.40
2022-11-04T13:46:36.311Z,87.03
2022-11-04T13:49:10.336Z,81.70
2022-11-04T13:51:47.118Z,77.85
2022-11-04T13:54:32.678Z,79.18
2022-11-04T13:57:22.308Z,79.75
2022-11-04T14:00:29.478Z,79.25
2022-11-04T14:03:02.282Z,91.80
2022-11-04T14:06:05.942Z,83.10
2022-11-04T14:08:37.778Z,75.90
2022-11-04T14:11:12.894Z,73.65
2022-11-04T14:13:46.499Z,74.30
2022-11-04T14:16:40.349Z,84.65
2022-11-04T14:19:44.284Z,76.72
2022-11-04T14:22:19.530Z,83.97
2022-11-04T14:24:59.869Z,82.00
2022-11-04T14:30:33.181Z,87.82
2022-11-04T14:33:08.350Z,97.22
2022-11-04T14:35:39.471Z,89.47
2022-11-04T14:38:32.650Z,81.38
2022-11-04T14:41:15.609Z,75.35
2022-11-04T14:43:49.230Z,73.65
2022-11-04T14:46:26.444Z,74.93
2022-11-04T14:48:59.405Z,69.45
2022-11-04T14:51:33.498Z,74.20
2022-11-04T14:54:23.601Z,73.05
2022-11-04T14:56:54.416Z,78.45
2022-11-04T14:59:30.920Z,78.95
2022-11-04T15:02:01.488Z,69.63
2022-11-04T15:04:34.532Z,70.68
2022-11-04T15:07:07.087Z,71.03
2022-11-04T15:09:51.199Z,72.78
2022-11-04T15:12:34.134Z,72.15
2022-11-04T15:15:04.577Z,90.63
2022-11-04T15:17:36.503Z,85.18
2022-11-04T15:20:07.554Z,73.82
2022-11-04T15:22:38.448Z,82.03
2022-11-04T15:25:14.483Z,88.40
2022-11-04T15:27:45.796Z,84.05
2022-11-04T15:30:28.355Z,85.50
2022-11-04T15:33:05.963Z,82.75
2022-11-04T15:35:37.039Z,70.15
2022-11-04T15:38:07.635Z,82.22
2022-11-04T15:40:38.018Z,71.43
2022-11-04T15:43:09.072Z,88.82
2022-11-04T15:45:53.937Z,77.45
2022-11-04T15:48:32.508Z,79.93
2022-11-04T15:51:20.319Z,105.80
2022-11-04T15:54:09.110Z,119.00
2022-11-04T15:56:52.903Z,123.38
2022-11-04T15:59:28.990Z,105.50
2022-11-04T16:01:59.732Z,121.68
2022-11-04T16:04:32.250Z,122.90
2022-11-04T16:07:24.618Z,122.00
2022-11-04T16:09:57.850Z,131.13
2022-11-04T16:12:32.938Z,109.68
2022-11-04T16:15:03.895Z,109.72
2022-11-04T16:17:35.288Z,110.65
2022-11-04T16:20:09.576Z,110.47
2022-11-04T16:22:42.581Z,106.35
2022-11-04T16:25:24.651Z,106.65
2022-11-04T16:27:54.971Z,104.35
2022-11-04T16:32:58.303Z,104.32
2022-11-04T16:35:30.453Z,108.63
2022-11-04T16:38:04.277Z,94.13
2022-11-04T16:40:36.735Z,87.55
2022-11-04T16:43:07.473Z,79.03
2022-11-04T16:45:41.681Z,86.45
2022-11-04T16:48:16.701Z,78.03
2022-11-04T16:50:48.685Z,76.35
2022-11-04T16:53:19.381Z,84.57
2022-11-04T16:55:50.088Z,78.10
2022-11-04T16:58:21.982Z,78.82
2022-11-04T17:00:52.559Z,76.90
2022-11-04T17:03:23.777Z,72.72
2022-11-04T17:05:58.531Z,75.70
2022-11-04T17:08:30.409Z,74.47
2022-11-04T17:11:01.423Z,83.65
2022-11-04T17:13:36.197Z,82.07
2022-11-04T17:16:09.715Z,83.60
2022-11-04T17:18:40.352Z,82.35
2022-11-04T17:21:16.280Z,89.03
2022-11-04T17:23:47.307Z,83.93
2022-11-04T17:26:17.910Z,88.97
2022-11-04T17:28:48.234Z,89.57
2022-11-04T17:31:23.633Z,88.38
2022-11-04T17:33:54.245Z,80.07
2022-11-04T17:36:25.270Z,90.85
2022-11-04T17:38:55.779Z,76.47
2022-11-04T17:44:14.558Z,69.97
2022-11-04T17:46:47.017Z,66.10
2022-11-04T17:49:20.984Z,65.50
2022-11-04T17:51:55.678Z,69.72
2022-11-04T17:54:27.497Z,72.88
2022-11-04T17:56:58.113Z,78.55
2022-11-04T17:59:32.569Z,66.80
2022-11-04T18:02:06.944Z,78.60
2022-11-04T18:04:37.440Z,63.97
2022-11-04T18:09:38.346Z,78.18
2022-11-04T18:12:25.914Z,70.22
2022-11-04T18:14:56.349Z,62.63
2022-11-04T18:22:27.287Z,71.75
2022-11-04T18:27:27.521Z,66.28
2022-11-04T18:29:58.632Z,65.97
2022-11-04T18:32:28.933Z,70.85
2022-11-04T18:34:59.834Z,68.32
2022-11-04T18:37:31.643Z,62.72
2022-11-04T18:40:02.349Z,61.00
2022-11-04T18:42:32.616Z,65.95
2022-11-04T18:45:03.016Z,67.13
2022-11-04T18:47:33.837Z,72.05
2022-11-04T18:50:04.256Z,75.63
2022-11-04T18:52:34.662Z,69.20
2022-11-04T18:57:35.233Z,66.15
2022-11-04T19:00:06.579Z,66.35
2022-11-04T19:02:36.912Z,73.15
2022-11-04T19:05:07.667Z,68.00
2022-11-04T19:07:38.036Z,74.72
2022-11-04T19:10:08.767Z,74.65
2022-11-04T19:12:49.507Z,69.43
2022-11-04T19:15:19.911Z,70.18
2022-11-04T19:17:50.367Z,78.68
2022-11-04T19:22:50.574Z,77.18
2022-11-04T19:25:20.915Z,73.95
2022-11-04T19:28:11.709Z,72.60
2022-11-04T19:33:11.822Z,74.82
2022-11-04T19:38:13.825Z,81.60
2022-11-04T19:40:46.797Z,80.53
2022-11-04T19:43:25.486Z,74.05
2022-11-04T19:45:59.971Z,67.55
2022-11-04T19:48:34.143Z,73.03
2022-11-04T19:51:04.481Z,75.57
2022-11-04T19:53:34.810Z,72.93
2022-11-04T19:56:05.165Z,64.30
2022-11-04T19:58:35.769Z,74.10
2022-11-04T20:01:08.995Z,72.28
2022-11-04T20:03:39.828Z,60.55
2022-11-04T20:06:13.098Z,63.10
2022-11-04T20:08:45.032Z,68.55
2022-11-04T20:11:16.762Z,66.20
2022-11-04T20:13:48.634Z,71.93
2022-11-04T20:16:24.493Z,71.68
2022-11-04T20:19:00.527Z,65.68
2022-11-04T20:21:35.696Z,69.68
2022-11-04T20:24:10.147Z,74.18
2022-11-04T20:26:42.657Z,66.95
2022-11-04T20:29:14.010Z,74.75
2022-11-04T20:31:44.423Z,67.63
2022-11-04T20:34:16.421Z,68.43
2022-11-04T20:36:46.818Z,70.03
2022-11-04T20:39:20.566Z,67.00
2022-11-04T20:41:50.990Z,69.78
2022-11-04T20:44:21.432Z,65.80
2022-11-04T20:46:51.749Z,64.40
2022-11-04T20:49:22.247Z,68.53
2022-11-04T20:54:25.976Z,70.22
2022-11-04T20:56:56.416Z,61.95
2022-11-04T21:01:56.668Z,75.70
2022-11-04T21:04:30.609Z,74.15
2022-11-04T21:07:04.875Z,69.90
2022-11-04T21:09:35.226Z,74.60
2022-11-04T21:12:06.070Z,69.43
2022-11-04T21:14:37.235Z,70.30
2022-11-04T21:17:08.816Z,72.18
2022-11-04T21:19:39.220Z,80.43
2022-11-04T21:22:09.762Z,68.30
2022-11-04T21:27:09.997Z,66.05
2022-11-04T21:29:40.329Z,73.00
2022-11-04T21:32:10.737Z,68.03
2022-11-04T21:34:41.291Z,75.70
2022-11-04T21:39:41.537Z,78.15
2022-11-04T21:44:41.825Z,75.78
2022-11-04T21:47:12.230Z,74.68
2022-11-04T21:49:42.605Z,71.20
2022-11-04T21:52:12.928Z,76.88
2022-11-04T21:54:43.156Z,70.00
2022-11-04T21:57:13.461Z,72.72
2022-11-04T21:59:43.872Z,76.93
2022-11-04T22:02:14.453Z,74.45
2022-11-04T22:04:44.951Z,68.97
2022-11-04T22:07:15.249Z,70.80
2022-11-04T22:09:45.653Z,67.38
2022-11-04T22:12:15.949Z,66.25
2022-11-04T22:14:46.383Z,66.45
2022-11-04T22:17:16.683Z,74.50
2022-11-04T22:19:47.093Z,62.05
2022-11-04T22:22:17.510Z,67.63
2022-11-04T22:25:05.071Z,63.40
2022-11-04T22:27:36.815Z,65.22
2022-11-04T22:30:07.525Z,69.03
2022-11-04T22:32:37.906Z,60.00
2022-11-04T22:35:08.904Z,65.03
2022-11-04T22:37:39.427Z,66.45
2022-11-04T22:42:39.985Z,74.50
2022-11-04T22:45:16.369Z,65.22
2022-11-04T22:47:47.215Z,63.55
2022-11-04T22:50:17.628Z,60.58
2022-11-04T22:52:48.044Z,79.80
2022-11-04T22:55:20.025Z,63.70
2022-11-04T22:57:50.419Z,73.47
2022-11-04T23:00:20.870Z,68.70
2022-11-04T23:02:51.527Z,69.55
2022-11-04T23:05:22.205Z,64.47
2022-11-04T23:10:33.850Z,62.97
2022-11-04T23:13:13.998Z,72.07
2022-11-04T23:15:54.231Z,61.42
2022-11-04T23:18:34.336Z,64.97
2022-11-04T23:21:14.493Z,74.25
2022-11-04T23:23:54.656Z,63.63
2022-11-04T23:26:27.821Z,61.03
2022-11-04T23:29:14.922Z,61.42
2022-11-04T23:31:45.334Z,65.05
2022-11-04T23:34:25.293Z,60.70
2022-11-04T23:37:05.525Z,74.57
2022-11-04T23:39:35.960Z,65.95
2022-11-04T23:42:21.649Z,73.90
2022-11-04T23:45:15.938Z,71.97
2022-11-04T23:48:06.172Z,66.43
2022-11-04T23:50:56.252Z,75.68
2022-11-04T23:53:36.482Z,66.10
2022-11-04T23:56:26.585Z,65.65
2022-11-04T23:59:06.795Z,63.03
